Portada
METAR-TAF:

METAR-TAF

Aeroports :

Phillip Goldston

Belize City, Belize

latitud: 17-32N, longitud: 088-18W, altitud: 5 m

Observació

L'informe es va fer fa 43 minuts, a les 23:00 UTC
Vent 6 kt del Est
Temperatura 31°C
Humitat 75%
Pressió 1011 hPa
Visibilitat 10 km o més
Escasses núvols a una alçada de 2400 ft

METAR: MZBZ 172300Z 09006KT 9999 FEW024 31/26 A2986 Q1011 NOSIG

Hora: 17:43 (23:43 UTC)

Pronòstic

L'informe es va fer fa 2 hores i 43 minuts, a les 21:00 UTC
Pronòstic vàlid del 18 a les 00 UTC al 18 a les 24 UTC
Vent 10 kt del Est
Visibilitat 10 km o més
Núvols disperses a una alçada de 2300 ft

TAF: MZBZ 172100Z 1800/1824 08010KT 9999 SCT023

Observacions i pronòstics meteorològics de més de 4000 aeroports (METAR i TAF).

Les estacions disponibles són els punts grocs i vermells al mapa.

Posi el ratolí al punt desitjat per veure el nom de l'estació.

Feu clic per veure les observacions i els pronòstics meteorològics.

Per canviar el mapa: feu clic els botons verds amb una creu de color negre per apropar; al botó verd amb un guió per allunyar la imatge; o en les fletxes verdes per a mapes adjacents.


METAR-TAF: